createdAt,value
2018-06-28T00:02:17.669Z,56.29
2018-06-28T00:07:10.678Z,56.33
2018-06-28T00:12:03.737Z,56.75
2018-06-28T00:16:56.832Z,56.83
2018-06-28T00:21:50.103Z,56.21
2018-06-28T00:26:43.281Z,56.83
2018-06-28T00:31:36.336Z,56.71
2018-06-28T00:36:29.396Z,57.61
2018-06-28T00:41:22.423Z,56.49
2018-06-28T00:46:15.640Z,57.02
2018-06-28T00:51:08.634Z,58.07
2018-06-28T00:56:01.724Z,58.51
2018-06-28T01:00:54.715Z,58.13
2018-06-28T01:05:47.782Z,58.56
2018-06-28T01:10:40.788Z,58.59
2018-06-28T01:15:33.831Z,58.82
2018-06-28T01:20:26.864Z,58.52
2018-06-28T01:25:19.805Z,58.74
2018-06-28T01:30:12.861Z,59.02
2018-06-28T01:35:05.880Z,59.64
2018-06-28T01:39:58.913Z,59.16
2018-06-28T01:44:51.966Z,60.02
2018-06-28T01:49:44.994Z,59.68
2018-06-28T01:54:37.970Z,60.28
2018-06-28T01:59:30.952Z,59.79
2018-06-28T02:04:23.943Z,60.51
2018-06-28T02:09:16.935Z,60.79
2018-06-28T02:14:09.949Z,60.81
2018-06-28T02:19:03.030Z,61.10
2018-06-28T02:23:56.105Z,60.77
2018-06-28T02:28:49.091Z,61.21
2018-06-28T02:33:42.240Z,61.94
2018-06-28T02:38:35.365Z,61.59
2018-06-28T02:43:28.321Z,61.99
2018-06-28T02:48:21.367Z,62.17
2018-06-28T02:53:14.477Z,62.55
2018-06-28T02:58:07.435Z,62.26
2018-06-28T03:03:00.459Z,63.00
2018-06-28T03:07:53.443Z,62.28
2018-06-28T03:12:46.470Z,62.52
2018-06-28T03:17:39.492Z,63.37
2018-06-28T03:22:32.450Z,63.49
2018-06-28T03:27:25.479Z,63.23
2018-06-28T03:32:18.495Z,63.62
2018-06-28T03:37:11.490Z,63.84
2018-06-28T03:42:04.564Z,63.79
2018-06-28T03:46:57.494Z,64.67
2018-06-28T03:51:50.480Z,64.36
2018-06-28T03:56:43.567Z,64.99
2018-06-28T04:01:36.610Z,65.23
2018-06-28T04:06:29.746Z,64.70
2018-06-28T04:11:22.688Z,65.34
2018-06-28T04:16:15.740Z,65.26
2018-06-28T04:21:08.759Z,64.95
2018-06-28T04:26:01.779Z,65.19
2018-06-28T04:30:54.900Z,65.31
2018-06-28T04:35:48.137Z,65.44
2018-06-28T04:40:41.205Z,65.50
2018-06-28T04:45:34.201Z,66.36
2018-06-28T04:50:27.312Z,65.92
2018-06-28T04:55:20.340Z,66.15
2018-06-28T05:00:13.307Z,66.35
2018-06-28T05:05:06.356Z,66.16
2018-06-28T05:09:59.381Z,65.55
2018-06-28T05:14:52.429Z,66.44
2018-06-28T05:19:45.452Z,66.49
2018-06-28T05:24:38.524Z,66.18
2018-06-28T05:29:31.523Z,65.84
2018-06-28T05:34:24.490Z,65.71
2018-06-28T05:39:17.466Z,65.64
2018-06-28T05:44:10.564Z,65.46
2018-06-28T05:49:03.705Z,65.12
2018-06-28T05:53:56.738Z,65.70
2018-06-28T05:58:49.779Z,65.53
2018-06-28T06:03:42.969Z,65.02
2018-06-28T06:08:36.081Z,64.83
2018-06-28T06:13:29.091Z,64.95
2018-06-28T06:18:22.080Z,64.84
2018-06-28T06:23:15.102Z,64.40
2018-06-28T06:28:08.100Z,63.55
2018-06-28T06:33:01.065Z,63.84
2018-06-28T06:37:54.065Z,62.98
2018-06-28T06:42:47.109Z,63.40
2018-06-28T06:47:40.145Z,62.45
2018-06-28T06:52:33.143Z,62.28
2018-06-28T06:57:26.131Z,62.49
2018-06-28T07:02:19.145Z,61.57
2018-06-28T07:07:12.185Z,61.37
2018-06-28T07:12:05.342Z,60.42
2018-06-28T07:16:58.579Z,60.07
2018-06-28T07:21:51.934Z,60.47
2018-06-28T07:26:44.887Z,60.04
2018-06-28T07:31:37.907Z,58.39
2018-06-28T07:36:31.032Z,54.53
2018-06-28T07:41:24.252Z,49.64
2018-06-28T07:46:17.252Z,46.11
2018-06-28T07:51:10.280Z,44.52
2018-06-28T07:56:03.591Z,42.29
2018-06-28T08:00:56.604Z,40.32
2018-06-28T08:05:49.665Z,38.90
2018-06-28T08:10:42.751Z,39.08
2018-06-28T08:15:35.770Z,38.42
2018-06-28T08:20:28.793Z,37.43
2018-06-28T08:25:21.843Z,37.96
2018-06-28T08:30:14.906Z,36.99
2018-06-28T08:35:07.889Z,37.29
2018-06-28T08:40:00.988Z,38.81
2018-06-28T08:44:54.010Z,38.91
2018-06-28T08:49:46.988Z,38.84
2018-06-28T08:54:40.000Z,38.90
2018-06-28T08:59:32.990Z,39.42
2018-06-28T09:04:25.967Z,38.98
2018-06-28T09:09:18.962Z,39.46
2018-06-28T09:14:11.948Z,39.90
2018-06-28T09:19:05.040Z,39.81
2018-06-28T09:23:58.103Z,39.78
2018-06-28T09:28:51.128Z,39.97
2018-06-28T09:33:44.323Z,39.98
2018-06-28T09:38:37.273Z,40.00
2018-06-28T09:43:30.201Z,39.64
2018-06-28T09:48:23.328Z,40.05
2018-06-28T09:53:16.350Z,40.07
2018-06-28T09:58:09.388Z,40.39
2018-06-28T10:03:02.369Z,40.96
2018-06-28T10:07:55.424Z,40.95
2018-06-28T10:12:48.392Z,39.83
2018-06-28T10:17:41.595Z,40.04
2018-06-28T10:22:34.614Z,39.83
2018-06-28T10:27:27.640Z,39.40
2018-06-28T10:32:20.693Z,39.53
2018-06-28T10:37:13.888Z,40.46
2018-06-28T10:42:07.282Z,40.56
2018-06-28T10:47:00.393Z,39.76
2018-06-28T10:51:53.543Z,40.00
2018-06-28T10:56:46.541Z,39.54
2018-06-28T11:01:39.559Z,39.29
2018-06-28T11:06:32.453Z,39.72
2018-06-28T11:11:25.513Z,39.53
2018-06-28T11:16:18.491Z,38.62
2018-06-28T11:21:11.485Z,38.51
2018-06-28T11:26:04.577Z,38.97
2018-06-28T11:30:57.703Z,38.40
2018-06-28T11:35:50.726Z,38.03
2018-06-28T11:40:43.730Z,37.29
2018-06-28T11:45:36.848Z,38.11
2018-06-28T11:50:30.282Z,37.18
2018-06-28T11:55:23.373Z,38.13
2018-06-28T12:00:16.374Z,37.75
2018-06-28T12:05:09.403Z,37.83
2018-06-28T12:10:02.420Z,36.62
2018-06-28T12:14:55.461Z,36.44
2018-06-28T12:19:48.401Z,36.70
2018-06-28T12:24:41.493Z,37.03
2018-06-28T12:29:34.499Z,36.18
2018-06-28T12:34:27.533Z,36.01
2018-06-28T12:39:20.623Z,36.75
2018-06-28T12:44:13.696Z,36.14
2018-06-28T12:49:06.785Z,36.33
2018-06-28T12:53:59.810Z,36.16
2018-06-28T12:58:53.925Z,36.52
2018-06-28T13:03:47.505Z,36.65
2018-06-28T13:08:40.785Z,35.79
2018-06-28T13:13:33.972Z,36.33
2018-06-28T13:18:26.946Z,35.88
2018-06-28T13:23:19.958Z,36.39
2018-06-28T13:28:12.951Z,37.61
2018-06-28T13:33:06.120Z,36.84
2018-06-28T13:37:59.159Z,36.88
2018-06-28T13:42:52.195Z,37.56
2018-06-28T13:47:45.205Z,36.60
2018-06-28T13:52:38.220Z,37.88
2018-06-28T13:57:31.216Z,38.51
2018-06-28T14:02:24.232Z,38.98
2018-06-28T14:07:17.479Z,39.32
2018-06-28T14:12:10.653Z,38.87
2018-06-28T14:17:03.705Z,39.75
2018-06-28T14:21:56.695Z,39.44
2018-06-28T14:26:49.596Z,40.02
2018-06-28T14:31:42.627Z,40.21
2018-06-28T14:36:35.582Z,39.89
2018-06-28T14:41:28.706Z,41.10
2018-06-28T14:46:21.814Z,40.87
2018-06-28T14:51:14.863Z,40.66
2018-06-28T14:56:07.857Z,40.89
2018-06-28T15:01:00.972Z,40.05
2018-06-28T15:05:54.054Z,40.12
2018-06-28T15:10:47.171Z,40.12
2018-06-28T15:15:40.179Z,40.81
2018-06-28T15:20:33.352Z,40.08
2018-06-28T15:25:26.321Z,40.74
2018-06-28T15:30:19.283Z,40.74
2018-06-28T15:35:12.332Z,40.47
2018-06-28T15:40:05.499Z,40.06
2018-06-28T15:44:58.670Z,40.46
2018-06-28T15:49:51.810Z,40.49
2018-06-28T15:54:44.867Z,39.76
2018-06-28T15:59:37.933Z,40.50
2018-06-28T16:04:31.060Z,40.30
2018-06-28T16:09:24.210Z,40.08
2018-06-28T16:14:17.322Z,39.81
2018-06-28T16:19:10.392Z,40.00
2018-06-28T16:24:03.505Z,40.85
2018-06-28T16:28:56.542Z,40.07
2018-06-28T16:33:49.745Z,40.52
2018-06-28T16:38:42.789Z,40.08
2018-06-28T16:43:35.789Z,39.82
2018-06-28T16:48:31.716Z,40.03
2018-06-28T16:53:24.765Z,40.65
2018-06-28T16:58:17.691Z,39.83
2018-06-28T17:03:13.698Z,40.98
2018-06-28T17:08:06.778Z,40.93
2018-06-28T17:12:59.822Z,40.35
2018-06-28T17:17:52.881Z,40.18
2018-06-28T17:22:46.044Z,41.04
2018-06-28T17:27:39.032Z,40.38
2018-06-28T17:32:32.091Z,40.10
2018-06-28T17:37:25.317Z,41.09
2018-06-28T17:42:18.389Z,40.95
2018-06-28T17:47:11.650Z,41.23
2018-06-28T17:52:04.718Z,43.64
2018-06-28T17:56:57.761Z,45.75
2018-06-28T18:01:50.850Z,45.52
2018-06-28T18:06:43.826Z,47.23
2018-06-28T18:11:37.397Z,46.92
2018-06-28T18:16:30.512Z,46.70
2018-06-28T18:21:23.475Z,45.13
2018-06-28T18:26:16.412Z,44.72
2018-06-28T18:31:09.308Z,45.11
2018-06-28T18:36:02.341Z,43.57
2018-06-28T18:40:55.465Z,42.70
2018-06-28T18:45:48.508Z,43.48
2018-06-28T18:50:41.686Z,43.48
2018-06-28T18:55:34.724Z,42.91
2018-06-28T19:00:27.686Z,43.69
2018-06-28T19:05:20.687Z,43.49
2018-06-28T19:10:19.332Z,43.74
2018-06-28T19:15:17.886Z,42.83
2018-06-28T19:20:10.994Z,42.08
2018-06-28T19:25:04.026Z,42.85
2018-06-28T19:30:02.697Z,42.20
2018-06-28T19:34:55.802Z,42.25
2018-06-28T19:41:56.470Z,41.65
2018-06-28T19:46:49.613Z,42.80
2018-06-28T19:51:48.293Z,42.84
2018-06-28T19:56:41.341Z,42.28
2018-06-28T20:01:40.147Z,42.46
2018-06-28T20:06:33.148Z,42.59
2018-06-28T20:11:26.135Z,43.06
2018-06-28T20:16:25.003Z,42.39
2018-06-28T20:21:17.975Z,42.55
2018-06-28T20:26:16.727Z,43.19
2018-06-28T20:31:15.047Z,44.20
2018-06-28T20:36:08.110Z,43.39
2018-06-28T20:41:01.064Z,43.92
2018-06-28T20:45:54.161Z,43.52
2018-06-28T20:50:47.573Z,43.65
2018-06-28T20:55:40.553Z,43.82
2018-06-28T21:00:33.758Z,43.89
2018-06-28T21:05:26.926Z,44.50
2018-06-28T21:10:19.954Z,44.21
2018-06-28T21:15:13.017Z,44.59
2018-06-28T21:20:06.059Z,45.19
2018-06-28T21:24:59.072Z,44.91
2018-06-28T21:29:52.116Z,44.79
2018-06-28T21:34:45.201Z,44.83
2018-06-28T21:39:38.123Z,45.32
2018-06-28T21:44:31.172Z,45.92
2018-06-28T21:49:24.063Z,45.66
2018-06-28T21:54:17.108Z,45.83
2018-06-28T21:59:10.210Z,46.50
2018-06-28T22:04:03.395Z,46.47
2018-06-28T22:08:56.390Z,46.80
2018-06-28T22:13:49.437Z,47.62
2018-06-28T22:18:42.406Z,47.38
2018-06-28T22:23:35.414Z,48.46
2018-06-28T22:28:29.240Z,48.13
2018-06-28T22:33:22.155Z,48.90
2018-06-28T22:38:15.271Z,48.41
2018-06-28T22:43:08.357Z,49.47
2018-06-28T22:48:01.275Z,48.95
2018-06-28T22:52:54.292Z,49.72
2018-06-28T22:57:47.308Z,49.61
2018-06-28T23:02:40.314Z,50.50
2018-06-28T23:07:33.315Z,49.98
2018-06-28T23:12:26.325Z,50.78
2018-06-28T23:17:19.326Z,50.33
2018-06-28T23:22:46.122Z,50.78
2018-06-28T23:27:39.132Z,50.58
2018-06-28T23:32:32.222Z,50.87
2018-06-28T23:37:25.228Z,51.00
2018-06-28T23:42:18.328Z,51.42
2018-06-28T23:47:11.365Z,51.89
2018-06-28T23:52:04.565Z,52.01
2018-06-28T23:56:57.637Z,52.25
